Anniston, MO (63820)

6:53 PM CST on February 07, 2016 (GMT -0600)
williams farm | | Change Station
CLOSE
Current Station
Personal Weather Station
Location: East Prairie, MO
Elevation: 315 ft
Nearby Weather Stations
Active Advisory: Flood Warning

Elev 315 ft 36.82 °N, 89.37 °W | Updated 1 minute ago

Partly Cloudy
Partly Cloudy
45.5 °F
Feels Like 43 °F
N
5.3
Wind Variable Wind from SW

Today
High -- | Low -- °F
--% Chance of Precip.
Yesterday
High -- | Low -- °F
Precip. -- in
Pressure 29.92 in
Visibility 10.0 miles
Clouds Scattered Clouds 11000 ft
Windchill 43 °F
Dew Point 34 °F
Humidity 63%
Rainfall 0.00 in
Snow Depth Not available.
6:54 AM 5:28 PM
Waning Crescent, 0% visible
METAR KCIR 080035Z AUTO 23007KT 10SM SCT110 09/03 A2992 RMK AO2 T00920025
Pressure 29.92 in
Visibility 10.0 miles
Clouds Scattered Clouds 11000 ft
Windchill 43 °F
Dew Point 34 °F
Humidity 63%
Rainfall 0.00 in
Snow Depth Not available.
6:54 AM 5:28 PM
Waning Crescent, 0% visible
METAR KCIR 080035Z AUTO 23007KT 10SM SCT110 09/03 A2992 RMK AO2 T00920025

10-Day Weather Forecast

Almanac

Astronomy

Feb. 07, 2016 Rise Set
Actual Time
Civil Twilight
Nautical Twilight
Astronomical Twilight
Moon
Length of Visible Light
Length of Day
Tomorrow will be .
, % of the Moon is Illuminated

Today's Extremes

State Highs State Lows

Community

WunderPhotos

Upload Photos

1,891,339 photos uploaded!

WunderBlog® & News

Nearby

Air Quality

  Air Quality AQ Index Pollutant
Not available.

Snow Depth

Station Depth Elevation

Earthquake Activity

City Distance Mag. Time & Date
Minimum magnitude displayed is 2.5.

Coastal Water Temperatures

Place Temperature

Stations

Nearby Weather Stations

Station Location Temp. Windchill Dew Point Humidity Wind Precip. Elev Updated Type
                   

Watches & Warnings

Flood Warning
Issued: 10:36 AM CST Feb. 7, 2016 – National Weather Service

The Flood Warning continues for
the Ohio River at Cairo.
* Until further notice.
* At 10:00 am Sunday the stage was 39.8 feet.
* Flood stage is 40.0 feet.
* Minor flooding is forecast.
* Forecast... rise above flood stage today and continue to
rise to near 41.5 feet by Tuesday morning.
* Impact... at 40.0 feet... minor flooding occurs affecting mainly
agricultural bottomland and low lying areas.


Lat... Lon 3709 8946 3651 8918 3680 8900 3709 8907
      3717 8916